Severance, NY (12872)

11:59 PM EST on February 10, 2016 (GMT -0500)
Schroon River | | Change Station
CLOSE
Current Station
Personal Weather Station
Location: Schroon Lake, NY
Elevation: 833 ft
Nearby Weather Stations

Elev 833 ft 43.86 °N, 73.75 °W | Updated 31 minutes ago

Overcast
Overcast
18.9 °F
Feels Like 19 °F
N
0.0
Wind Variable Wind from West

Today
High -- | Low -- °F
--% Chance of Precip.
Yesterday
High -- | Low -- °F
Precip. -- in
Pressure 29.64 in
Visibility 10.0 miles
Clouds Overcast 3500 ft
Windchill 19 °F
Dew Point 13 °F
Humidity 76%
Rainfall 0.00 in
Snow Depth Not available.
7:01 AM 5:17 PM
Waxing Crescent, 9% visible
METAR K6B0 110435Z AUTO 00000KT 10SM OVC035 M04/M07 A2964 RMK AO2 T10451070
Pressure 29.64 in
Visibility 10.0 miles
Clouds Overcast 3500 ft
Windchill 19 °F
Dew Point 13 °F
Humidity 76%
Rainfall 0.00 in
Snow Depth Not available.
7:01 AM 5:17 PM
Waxing Crescent, 9% visible
METAR K6B0 110435Z AUTO 00000KT 10SM OVC035 M04/M07 A2964 RMK AO2 T10451070

10-Day Weather Forecast

Almanac

Astronomy

Feb. 10, 2016 Rise Set
Actual Time
Civil Twilight
Nautical Twilight
Astronomical Twilight
Moon
Length of Visible Light
Length of Day
Tomorrow will be .
, % of the Moon is Illuminated

Today's Extremes

State Highs State Lows

Community

WunderPhotos

Upload Photos

1,892,015 photos uploaded!

WunderBlog® & News

Nearby

Air Quality

  Air Quality AQ Index Pollutant
Not available.

Snow Depth

Station Depth Elevation

Earthquake Activity

City Distance Mag. Time & Date
Minimum magnitude displayed is 2.5.

Coastal Water Temperatures

Place Temperature

Stations

Nearby Weather Stations

Station Location Temp. Windchill Dew Point Humidity Wind Precip. Elev Updated Type
                   

Watches & Warnings

There are currently no watches in effect.